createdAt,value
2018-08-06T00:00:47.660Z,992.58
2018-08-06T00:01:47.661Z,992.57
2018-08-06T00:02:47.666Z,992.56
2018-08-06T00:03:47.669Z,992.58
2018-08-06T00:04:47.673Z,992.58
2018-08-06T00:05:47.674Z,992.56
2018-08-06T00:06:47.688Z,992.56
2018-08-06T00:07:47.681Z,992.52
2018-08-06T00:08:47.688Z,992.55
2018-08-06T00:09:47.686Z,992.53
2018-08-06T00:10:47.692Z,992.52
2018-08-06T00:11:47.691Z,992.55
2018-08-06T00:12:47.697Z,992.54
2018-08-06T00:13:47.699Z,992.52
2018-08-06T00:14:47.699Z,992.54
2018-08-06T00:15:47.706Z,992.52
2018-08-06T00:16:47.709Z,992.54
2018-08-06T00:17:47.716Z,992.55
2018-08-06T00:18:47.713Z,992.53
2018-08-06T00:19:47.717Z,992.53
2018-08-06T00:20:47.719Z,992.56
2018-08-06T00:21:47.723Z,992.56
2018-08-06T00:22:47.732Z,992.53
2018-08-06T00:23:47.736Z,992.53
2018-08-06T00:24:47.732Z,992.55
2018-08-06T00:25:47.738Z,992.51
2018-08-06T00:26:47.741Z,992.54
2018-08-06T00:27:47.749Z,992.52
2018-08-06T00:28:47.745Z,992.52
2018-08-06T00:29:47.749Z,992.49
2018-08-06T00:30:47.811Z,992.49
2018-08-06T00:31:47.755Z,992.47
2018-08-06T00:32:47.757Z,992.49
2018-08-06T00:33:47.764Z,992.48
2018-08-06T00:34:47.764Z,992.45
2018-08-06T00:35:47.772Z,992.46
2018-08-06T00:36:47.769Z,992.43
2018-08-06T00:37:47.772Z,992.45
2018-08-06T00:38:47.777Z,992.45
2018-08-06T00:39:47.777Z,992.45
2018-08-06T00:40:47.782Z,992.41
2018-08-06T00:41:47.783Z,992.38
2018-08-06T00:42:47.788Z,992.37
2018-08-06T00:43:47.791Z,992.35
2018-08-06T00:44:47.794Z,992.39
2018-08-06T00:45:47.797Z,992.39
2018-08-06T00:46:47.798Z,992.4
2018-08-06T00:47:47.803Z,992.43
2018-08-06T00:48:47.816Z,992.38
2018-08-06T00:49:47.807Z,992.41
2018-08-06T00:50:47.809Z,992.37
2018-08-06T00:51:47.811Z,992.34
2018-08-06T00:52:47.823Z,992.38
2018-08-06T00:53:47.822Z,992.33
2018-08-06T00:54:47.821Z,992.36
2018-08-06T00:55:47.843Z,992.36
2018-08-06T00:56:47.826Z,992.32
2018-08-06T00:57:47.835Z,992.32
2018-08-06T00:58:47.834Z,992.37
2018-08-06T00:59:47.842Z,992.35
2018-08-06T01:00:47.839Z,992.36
2018-08-06T01:01:47.854Z,992.35
2018-08-06T01:02:47.846Z,992.35
2018-08-06T01:03:47.852Z,992.33
2018-08-06T01:04:47.867Z,992.33
2018-08-06T01:05:47.867Z,992.32
2018-08-06T01:06:47.858Z,992.33
2018-08-06T01:07:47.865Z,992.28
2018-08-06T01:08:47.870Z,992.31
2018-08-06T01:09:47.862Z,992.32
2018-08-06T01:10:47.873Z,992.33
2018-08-06T01:11:47.871Z,992.34
2018-08-06T01:12:47.874Z,992.35
2018-08-06T01:13:47.875Z,992.34
2018-08-06T01:14:47.882Z,992.36
2018-08-06T01:15:47.880Z,992.33
2018-08-06T01:16:47.885Z,992.31
2018-08-06T01:17:47.888Z,992.31
2018-08-06T01:18:47.890Z,992.34
2018-08-06T01:19:47.895Z,992.3
2018-08-06T01:20:47.900Z,992.29
2018-08-06T01:21:47.894Z,992.3
2018-08-06T01:22:47.901Z,992.29
2018-08-06T01:23:47.915Z,992.29
2018-08-06T01:24:47.906Z,992.3
2018-08-06T01:25:47.909Z,992.29
2018-08-06T01:26:47.912Z,992.28
2018-08-06T01:27:47.914Z,992.32
2018-08-06T01:28:47.925Z,992.26
2018-08-06T01:29:47.921Z,992.23
2018-08-06T01:30:47.927Z,992.24
2018-08-06T01:31:47.925Z,992.22
2018-08-06T01:32:47.930Z,992.2
2018-08-06T01:33:47.937Z,992.19
2018-08-06T01:34:47.934Z,992.23
2018-08-06T01:35:47.937Z,992.18
2018-08-06T01:36:47.940Z,992.21
2018-08-06T01:37:47.940Z,992.19
2018-08-06T01:38:47.941Z,992.17
2018-08-06T01:39:47.947Z,992.16
2018-08-06T01:40:47.952Z,992.13
2018-08-06T01:41:47.952Z,992.12
2018-08-06T01:42:47.954Z,992.12
2018-08-06T01:43:47.957Z,992.06
2018-08-06T01:44:47.963Z,992.09
2018-08-06T01:45:48.034Z,992.12
2018-08-06T01:46:47.966Z,992.1
2018-08-06T01:47:47.973Z,992.05
2018-08-06T01:48:47.969Z,992.08
2018-08-06T01:49:47.973Z,992.05
2018-08-06T01:50:47.976Z,992
2018-08-06T01:51:47.980Z,992.09
2018-08-06T01:52:47.981Z,992.05
2018-08-06T01:53:47.984Z,992.03
2018-08-06T01:54:47.984Z,992.02
2018-08-06T01:55:47.992Z,992.02
2018-08-06T01:56:47.994Z,991.99
2018-08-06T01:57:47.995Z,991.99
2018-08-06T01:58:47.999Z,991.97
2018-08-06T01:59:48.011Z,991.95
2018-08-06T02:00:48.008Z,991.95
2018-08-06T02:01:48.004Z,991.94
2018-08-06T02:02:48.009Z,991.92
2018-08-06T02:03:48.011Z,991.94
2018-08-06T02:04:48.011Z,991.9
2018-08-06T02:05:48.018Z,991.92
2018-08-06T02:06:48.018Z,991.91
2018-08-06T02:07:48.020Z,991.94
2018-08-06T02:08:48.022Z,991.97
2018-08-06T02:09:48.025Z,991.94
2018-08-06T02:10:48.031Z,991.99
2018-08-06T02:11:48.032Z,991.94
2018-08-06T02:12:48.032Z,991.9
2018-08-06T02:13:48.036Z,991.9
2018-08-06T02:14:48.051Z,991.91
2018-08-06T02:15:48.042Z,991.9
2018-08-06T02:16:48.043Z,991.93
2018-08-06T02:17:48.048Z,991.9
2018-08-06T02:18:48.047Z,991.91
2018-08-06T02:19:48.051Z,991.93
2018-08-06T02:20:48.059Z,991.9
2018-08-06T02:21:48.062Z,991.93
2018-08-06T02:22:48.063Z,991.89
2018-08-06T02:23:48.066Z,991.89
2018-08-06T02:24:48.065Z,991.88
2018-08-06T02:25:48.064Z,991.89
2018-08-06T02:26:48.083Z,991.89
2018-08-06T02:27:48.070Z,991.87
2018-08-06T02:28:48.075Z,991.87
2018-08-06T02:29:48.074Z,991.89
2018-08-06T02:30:48.079Z,991.86
2018-08-06T02:31:48.085Z,991.88
2018-08-06T02:32:48.121Z,991.79
2018-08-06T02:33:48.128Z,991.77
2018-08-06T02:34:48.093Z,991.82
2018-08-06T02:35:48.090Z,991.83
2018-08-06T02:36:48.093Z,991.83
2018-08-06T02:37:48.096Z,991.83
2018-08-06T02:38:48.099Z,991.83
2018-08-06T02:39:48.101Z,991.81
2018-08-06T02:40:48.107Z,991.82
2018-08-06T02:41:48.105Z,991.81
2018-08-06T02:42:48.107Z,991.81
2018-08-06T02:43:48.109Z,991.78
2018-08-06T02:44:48.110Z,991.78
2018-08-06T02:45:48.114Z,991.79
2018-08-06T02:46:48.114Z,991.75
2018-08-06T02:47:48.120Z,991.77
2018-08-06T02:48:48.375Z,991.75
2018-08-06T02:49:48.122Z,991.77
2018-08-06T02:50:48.127Z,991.78
2018-08-06T02:51:48.130Z,991.77
2018-08-06T02:52:48.159Z,991.74
2018-08-06T02:53:48.133Z,991.69
2018-08-06T02:54:48.135Z,991.72
2018-08-06T02:55:48.137Z,991.7
2018-08-06T02:56:48.140Z,991.7
2018-08-06T02:57:48.140Z,991.73
2018-08-06T02:58:48.146Z,991.75
2018-08-06T02:59:48.146Z,991.73
2018-08-06T03:00:48.152Z,991.76
2018-08-06T03:01:48.161Z,991.72
2018-08-06T03:02:48.165Z,991.67
2018-08-06T03:03:48.160Z,991.72
2018-08-06T03:04:48.164Z,991.69
2018-08-06T03:05:48.161Z,991.68
2018-08-06T03:06:48.162Z,991.66
2018-08-06T03:07:48.168Z,991.7
2018-08-06T03:08:48.169Z,991.68
2018-08-06T03:09:48.180Z,991.69
2018-08-06T03:10:48.172Z,991.65
2018-08-06T03:11:48.176Z,991.67
2018-08-06T03:12:48.182Z,991.62
2018-08-06T03:13:48.179Z,991.64
2018-08-06T03:14:48.182Z,991.66
2018-08-06T03:15:48.184Z,991.69
2018-08-06T03:16:48.188Z,991.66
2018-08-06T03:17:48.195Z,991.65
2018-08-06T03:18:48.191Z,991.68
2018-08-06T03:19:48.193Z,991.62
2018-08-06T03:20:48.195Z,991.64
2018-08-06T03:21:48.198Z,991.64
2018-08-06T03:22:48.203Z,991.63
2018-08-06T03:23:48.202Z,991.63
2018-08-06T03:24:48.221Z,991.69
2018-08-06T03:25:48.206Z,991.69
2018-08-06T03:26:48.210Z,991.67
2018-08-06T03:27:48.213Z,991.67
2018-08-06T03:28:48.215Z,991.68
2018-08-06T03:29:48.221Z,991.64
2018-08-06T03:30:48.219Z,991.67
2018-08-06T03:31:48.238Z,991.63
2018-08-06T03:32:48.238Z,991.67
2018-08-06T03:33:48.230Z,991.66
2018-08-06T03:34:48.230Z,991.66
2018-08-06T03:35:48.230Z,991.64
2018-08-06T03:36:48.247Z,991.69
2018-08-06T03:37:48.234Z,991.68
2018-08-06T03:38:48.239Z,991.67
2018-08-06T03:39:48.244Z,991.66
2018-08-06T03:40:48.248Z,991.68
2018-08-06T03:41:48.246Z,991.71
2018-08-06T03:42:48.244Z,991.72
2018-08-06T03:43:48.246Z,991.76
2018-08-06T03:44:48.252Z,991.76
2018-08-06T03:45:48.258Z,991.77
2018-08-06T03:46:48.254Z,991.76
2018-08-06T03:47:48.255Z,991.74
2018-08-06T03:48:49.312Z,991.72
2018-08-06T03:49:48.261Z,991.77
2018-08-06T03:50:48.263Z,991.78
2018-08-06T03:51:48.263Z,991.76
2018-08-06T03:52:48.292Z,991.72
2018-08-06T03:53:48.271Z,991.73
2018-08-06T03:54:48.272Z,991.77
2018-08-06T03:55:48.273Z,991.77
2018-08-06T03:56:48.276Z,991.79
2018-08-06T03:57:48.300Z,991.75
2018-08-06T03:58:48.279Z,991.79
2018-08-06T03:59:48.282Z,991.85
2018-08-06T04:00:48.283Z,991.83
2018-08-06T04:01:48.285Z,991.81
2018-08-06T04:02:48.287Z,991.81
2018-08-06T04:03:48.291Z,991.83
2018-08-06T04:04:48.292Z,991.85
2018-08-06T04:05:48.296Z,991.84
2018-08-06T04:06:48.298Z,991.8
2018-08-06T04:07:48.299Z,991.82
2018-08-06T04:08:48.299Z,991.84
2018-08-06T04:09:48.300Z,991.85
2018-08-06T04:10:48.304Z,991.84
2018-08-06T04:11:48.312Z,991.89
2018-08-06T04:12:48.306Z,991.87
2018-08-06T04:13:48.315Z,991.92
2018-08-06T04:14:48.314Z,991.9
2018-08-06T04:15:48.318Z,991.91
2018-08-06T04:16:48.314Z,991.9
2018-08-06T04:17:48.318Z,991.95
2018-08-06T04:18:48.323Z,991.94
2018-08-06T04:19:48.430Z,991.92
2018-08-06T04:20:48.324Z,991.93
2018-08-06T04:21:48.333Z,991.93
2018-08-06T04:22:48.329Z,991.94
2018-08-06T04:23:48.332Z,991.94
2018-08-06T04:24:48.334Z,991.96
2018-08-06T04:25:48.336Z,991.97
2018-08-06T04:26:48.349Z,991.96
2018-08-06T04:27:48.341Z,991.96
2018-08-06T04:28:48.343Z,991.97
2018-08-06T04:29:48.343Z,992
2018-08-06T04:30:48.347Z,991.93
2018-08-06T04:31:48.347Z,991.99
2018-08-06T04:32:48.419Z,991.98
2018-08-06T04:33:48.353Z,992.05
2018-08-06T04:34:48.363Z,992
2018-08-06T04:35:48.357Z,992
2018-08-06T04:36:48.357Z,992.01
2018-08-06T04:37:48.368Z,992.02
2018-08-06T04:38:48.364Z,991.98
2018-08-06T04:39:48.368Z,991.99
2018-08-06T04:40:48.372Z,991.99
2018-08-06T04:41:48.369Z,992
2018-08-06T04:42:48.375Z,991.99
2018-08-06T04:43:48.375Z,991.99
2018-08-06T04:44:48.379Z,991.98
2018-08-06T04:45:48.379Z,992
2018-08-06T04:46:48.384Z,992.01
2018-08-06T04:47:48.387Z,992.02
2018-08-06T04:48:48.386Z,992.06
2018-08-06T04:49:49.992Z,992.01
2018-08-06T04:50:48.393Z,992.06
2018-08-06T04:51:48.396Z,992.08
2018-08-06T04:52:48.397Z,992.13
2018-08-06T04:53:48.400Z,992.13
2018-08-06T04:54:48.407Z,992.17
2018-08-06T04:55:48.408Z,992.18
2018-08-06T04:56:48.409Z,992.15
2018-08-06T04:57:48.417Z,992.16
2018-08-06T04:58:48.417Z,992.11
2018-08-06T04:59:48.425Z,992.15
2018-08-06T05:00:48.430Z,992.1
2018-08-06T05:01:48.428Z,992.1
2018-08-06T05:02:48.431Z,992.1
2018-08-06T05:03:48.436Z,992.11
2018-08-06T05:04:48.438Z,992.06
2018-08-06T05:05:48.446Z,992.09
2018-08-06T05:06:48.489Z,992.11
2018-08-06T05:07:48.461Z,992.12
2018-08-06T05:08:48.461Z,992.13
2018-08-06T05:09:48.465Z,992.14
2018-08-06T05:10:48.469Z,992.14
2018-08-06T05:11:48.473Z,992.15
2018-08-06T05:12:48.479Z,992.15
2018-08-06T05:13:48.506Z,992.15
2018-08-06T05:14:48.489Z,992.15
2018-08-06T05:15:48.507Z,992.13
2018-08-06T05:16:48.504Z,992.14
2018-08-06T05:17:48.508Z,992.17
2018-08-06T05:18:48.511Z,992.15
2018-08-06T05:19:48.525Z,992.15
2018-08-06T05:20:48.523Z,992.15
2018-08-06T05:21:48.528Z,992.13
2018-08-06T05:22:48.532Z,992.14
2018-08-06T05:23:48.540Z,992.14
2018-08-06T05:24:48.571Z,992.12
2018-08-06T05:25:48.549Z,992.11
2018-08-06T05:26:48.561Z,992.07
2018-08-06T05:27:48.564Z,992.09
2018-08-06T05:28:48.571Z,992.07
2018-08-06T05:29:48.574Z,992.06
2018-08-06T05:30:48.578Z,992.14
2018-08-06T05:31:48.584Z,992.09
2018-08-06T05:32:48.590Z,992.15
2018-08-06T05:33:48.605Z,992.15
2018-08-06T05:34:48.598Z,992.18
2018-08-06T05:35:48.610Z,992.16
2018-08-06T05:36:48.621Z,992.15
2018-08-06T05:37:48.613Z,992.16
2018-08-06T05:38:48.617Z,992.19
2018-08-06T05:39:48.642Z,992.14
2018-08-06T05:40:48.633Z,992.13
2018-08-06T05:41:48.632Z,992.13
2018-08-06T05:42:48.635Z,992.1
2018-08-06T05:43:48.640Z,992.13
2018-08-06T05:44:48.646Z,992.13
2018-08-06T05:45:48.652Z,992.12
2018-08-06T05:46:48.659Z,992.16
2018-08-06T05:47:48.656Z,992.14
2018-08-06T05:48:48.660Z,992.18
2018-08-06T05:49:48.663Z,992.16
2018-08-06T05:50:48.676Z,992.15
2018-08-06T05:51:48.672Z,992.09
2018-08-06T05:52:48.689Z,992.04
2018-08-06T05:53:48.687Z,992.09
2018-08-06T05:54:48.697Z,992.08
2018-08-06T05:55:48.700Z,992.11
2018-08-06T05:56:48.697Z,992.14
2018-08-06T05:57:48.702Z,992.15
2018-08-06T05:58:48.711Z,992.14
2018-08-06T05:59:48.707Z,992.15
2018-08-06T06:00:48.710Z,992.15
2018-08-06T06:01:48.714Z,992.18
2018-08-06T06:02:48.718Z,992.17
2018-08-06T06:03:48.722Z,992.15
2018-08-06T06:04:48.736Z,992.19
2018-08-06T06:05:48.731Z,992.17
2018-08-06T06:06:48.739Z,992.2
2018-08-06T06:07:48.782Z,992.18
2018-08-06T06:08:48.742Z,992.19
2018-08-06T06:09:48.756Z,992.17
2018-08-06T06:10:48.772Z,992.16
2018-08-06T06:11:48.755Z,992.2
2018-08-06T06:12:48.767Z,992.21
2018-08-06T06:13:48.767Z,992.2
2018-08-06T06:14:48.780Z,992.16
2018-08-06T06:15:48.775Z,992.22
2018-08-06T06:16:48.780Z,992.22
2018-08-06T06:17:48.785Z,992.23
2018-08-06T06:18:48.800Z,992.24
2018-08-06T06:19:48.793Z,992.25
2018-08-06T06:20:48.795Z,992.29
2018-08-06T06:21:48.799Z,992.27
2018-08-06T06:22:48.802Z,992.23
2018-08-06T06:23:48.809Z,992.24
2018-08-06T06:24:48.812Z,992.25
2018-08-06T06:25:48.830Z,992.21
2018-08-06T06:26:48.826Z,992.23
2018-08-06T06:27:48.829Z,992.22
2018-08-06T06:28:48.830Z,992.26
2018-08-06T06:29:48.835Z,992.26
2018-08-06T06:30:48.857Z,992.26
2018-08-06T06:31:48.855Z,992.25
2018-08-06T06:32:48.858Z,992.21
2018-08-06T06:33:48.861Z,992.21
2018-08-06T06:34:48.951Z,992.27
2018-08-06T06:35:48.871Z,992.28
2018-08-06T06:36:48.882Z,992.22
2018-08-06T06:37:48.884Z,992.22
2018-08-06T06:38:48.908Z,992.23
2018-08-06T06:39:48.900Z,992.24
2018-08-06T06:40:48.904Z,992.26
2018-08-06T06:41:49.003Z,992.16
2018-08-06T06:42:48.916Z,992.22
2018-08-06T06:43:48.927Z,992.15
2018-08-06T06:44:48.930Z,992.14
2018-08-06T06:45:48.943Z,992.14
2018-08-06T06:46:48.944Z,992.13
2018-08-06T06:47:48.951Z,992.15
2018-08-06T06:48:49.013Z,992.14
2018-08-06T06:49:48.968Z,992.08
2018-08-06T06:50:48.971Z,992.06
2018-08-06T06:51:48.980Z,992.08
2018-08-06T06:52:48.986Z,991.98
2018-08-06T06:53:48.993Z,992.08
2018-08-06T06:54:48.998Z,992.08
2018-08-06T06:55:49.010Z,992.01
2018-08-06T06:56:49.015Z,992.02
2018-08-06T06:57:49.021Z,992
2018-08-06T06:58:49.052Z,992.06
2018-08-06T06:59:49.059Z,992.04
2018-08-06T07:00:49.045Z,992.01
2018-08-06T07:01:49.053Z,992
2018-08-06T07:02:49.061Z,992.02
2018-08-06T07:03:49.068Z,992.02
2018-08-06T07:04:49.084Z,991.98
2018-08-06T07:05:49.087Z,991.94
2018-08-06T07:06:49.094Z,991.93
2018-08-06T07:07:49.099Z,991.93
2018-08-06T07:08:49.109Z,991.96
2018-08-06T07:09:49.114Z,991.95
2018-08-06T07:10:49.122Z,991.96
2018-08-06T07:11:49.130Z,991.91
2018-08-06T07:12:49.144Z,991.89
2018-08-06T07:13:49.227Z,991.85
2018-08-06T07:14:49.158Z,991.84
2018-08-06T07:15:49.167Z,991.86
2018-08-06T07:16:49.178Z,991.87
2018-08-06T07:17:49.184Z,991.88
2018-08-06T07:18:49.192Z,991.9
2018-08-06T07:19:49.198Z,991.86
2018-08-06T07:20:49.207Z,991.91
2018-08-06T07:21:49.223Z,991.89
2018-08-06T07:22:49.220Z,991.84
2018-08-06T07:23:49.233Z,991.9
2018-08-06T07:24:49.242Z,991.9
2018-08-06T07:25:49.247Z,991.84
2018-08-06T07:26:49.256Z,991.86
2018-08-06T07:27:49.285Z,991.84
2018-08-06T07:28:49.280Z,991.77
2018-08-06T07:29:49.284Z,991.83
2018-08-06T07:30:49.284Z,991.81
2018-08-06T07:31:49.304Z,991.79
2018-08-06T07:32:49.308Z,991.88
2018-08-06T07:33:49.413Z,991.89
2018-08-06T07:34:49.315Z,991.86
2018-08-06T07:35:49.329Z,991.9
2018-08-06T07:36:49.339Z,991.87
2018-08-06T07:37:49.352Z,991.88
2018-08-06T07:38:49.356Z,991.89
2018-08-06T07:39:49.357Z,991.91
2018-08-06T07:40:49.366Z,991.88
2018-08-06T07:41:49.374Z,991.82
2018-08-06T07:42:49.392Z,991.82
2018-08-06T07:43:49.390Z,991.78
2018-08-06T07:44:49.401Z,991.78
2018-08-06T07:45:49.425Z,991.79
2018-08-06T07:46:49.429Z,991.8
2018-08-06T07:47:49.423Z,991.78
2018-08-06T07:48:49.429Z,991.83
2018-08-06T07:49:49.467Z,991.86
2018-08-06T07:50:49.435Z,991.89
2018-08-06T07:51:49.452Z,991.83
2018-08-06T07:52:49.457Z,991.85
2018-08-06T07:53:49.469Z,991.81
2018-08-06T07:54:49.469Z,991.79
2018-08-06T07:55:49.468Z,991.77
2018-08-06T07:56:49.479Z,991.75
2018-08-06T07:57:49.492Z,991.77
2018-08-06T07:58:49.492Z,991.78
2018-08-06T07:59:49.571Z,991.74
2018-08-06T08:00:49.503Z,991.72
2018-08-06T08:01:49.521Z,991.76
2018-08-06T08:02:49.532Z,991.75
2018-08-06T08:03:49.529Z,991.77
2018-08-06T08:04:49.534Z,991.8
2018-08-06T08:05:49.543Z,991.74
2018-08-06T08:06:49.548Z,991.76
2018-08-06T08:07:49.554Z,991.72
2018-08-06T08:08:49.563Z,991.75
2018-08-06T08:09:49.569Z,991.69
2018-08-06T08:10:49.576Z,991.72
2018-08-06T08:11:49.589Z,991.71
2018-08-06T08:12:49.598Z,991.72
2018-08-06T08:13:49.597Z,991.74
2018-08-06T08:14:49.607Z,991.71
2018-08-06T08:15:49.645Z,991.66
2018-08-06T08:16:49.622Z,991.66
2018-08-06T08:17:49.629Z,991.67
2018-08-06T08:18:49.642Z,991.64
2018-08-06T08:19:49.751Z,991.64
2018-08-06T08:20:51.267Z,991.66
2018-08-06T08:21:49.665Z,991.66
2018-08-06T08:22:49.683Z,991.65
2018-08-06T08:23:49.680Z,991.64
2018-08-06T08:24:49.690Z,991.68
2018-08-06T08:25:49.695Z,991.67
2018-08-06T08:26:49.704Z,991.7
2018-08-06T08:27:49.712Z,991.68
2018-08-06T08:28:49.716Z,991.72
2018-08-06T08:29:49.726Z,991.7
2018-08-06T08:30:49.744Z,991.72
2018-08-06T08:31:49.747Z,991.69
2018-08-06T08:32:49.751Z,991.69
2018-08-06T08:33:49.813Z,991.66
2018-08-06T08:34:49.766Z,991.65
2018-08-06T08:35:49.772Z,991.65
2018-08-06T08:36:49.778Z,991.66
2018-08-06T08:37:49.786Z,991.67
2018-08-06T08:38:49.795Z,991.64
2018-08-06T08:39:49.806Z,991.67
2018-08-06T08:40:49.814Z,991.7
2018-08-06T08:41:49.817Z,991.63
2018-08-06T08:42:49.828Z,991.63
2018-08-06T08:43:49.830Z,991.65
2018-08-06T08:44:49.849Z,991.64
2018-08-06T08:45:49.847Z,991.61
2018-08-06T08:46:49.858Z,991.6
2018-08-06T08:47:49.873Z,991.6
2018-08-06T08:48:49.872Z,991.58
2018-08-06T08:49:49.875Z,991.56
2018-08-06T08:50:49.884Z,991.53
2018-08-06T08:51:49.891Z,991.49
2018-08-06T08:52:49.900Z,991.48
2018-08-06T08:53:49.907Z,991.48
2018-08-06T08:54:49.914Z,991.5
2018-08-06T08:55:49.929Z,991.46
2018-08-06T08:56:49.931Z,991.46
2018-08-06T08:57:49.941Z,991.46
2018-08-06T08:58:50.000Z,991.44
2018-08-06T08:59:49.965Z,991.42
2018-08-06T09:00:49.970Z,991.45
2018-08-06T09:01:49.967Z,991.42
2018-08-06T09:02:49.976Z,991.4
2018-08-06T09:03:49.983Z,991.41
2018-08-06T09:04:49.991Z,991.42
2018-08-06T09:05:50.000Z,991.41
2018-08-06T09:06:50.003Z,991.39
2018-08-06T09:07:50.011Z,991.43
2018-08-06T09:08:50.017Z,991.37
2018-08-06T09:09:50.032Z,991.39
2018-08-06T09:10:50.031Z,991.39
2018-08-06T09:11:50.036Z,991.39
2018-08-06T09:12:50.047Z,991.36
2018-08-06T09:13:50.068Z,991.38
2018-08-06T09:14:50.062Z,991.35
2018-08-06T09:15:50.062Z,991.35
2018-08-06T09:16:50.069Z,991.33
2018-08-06T09:17:50.085Z,991.34
2018-08-06T09:18:50.085Z,991.33
2018-08-06T09:19:50.090Z,991.35
2018-08-06T09:20:50.098Z,991.33
2018-08-06T09:21:50.102Z,991.3
2018-08-06T09:22:50.109Z,991.31
2018-08-06T09:23:50.114Z,991.27
2018-08-06T09:24:50.125Z,991.29
2018-08-06T09:25:50.129Z,991.3
2018-08-06T09:26:50.157Z,991.28
2018-08-06T09:27:50.167Z,991.3
2018-08-06T09:28:50.147Z,991.3
2018-08-06T09:29:50.154Z,991.27
2018-08-06T09:30:50.164Z,991.29
2018-08-06T09:31:50.167Z,991.28
2018-08-06T09:32:50.171Z,991.25
2018-08-06T09:33:50.182Z,991.25
2018-08-06T09:34:50.191Z,991.24
2018-08-06T09:35:50.192Z,991.21
2018-08-06T09:36:50.195Z,991.25
2018-08-06T09:37:50.207Z,991.19
2018-08-06T09:38:50.208Z,991.21
2018-08-06T09:39:50.216Z,991.19
2018-08-06T09:40:50.224Z,991.2
2018-08-06T09:41:50.234Z,991.21
2018-08-06T09:42:50.240Z,991.16
2018-08-06T09:43:50.244Z,991.13
2018-08-06T09:44:50.248Z,991.09
2018-08-06T09:45:50.256Z,991.07
2018-08-06T09:46:50.275Z,991.07
2018-08-06T09:47:50.284Z,991.08
2018-08-06T09:48:50.286Z,991.08
2018-08-06T09:49:50.295Z,991.05
2018-08-06T09:50:50.287Z,991.05
2018-08-06T09:51:50.300Z,991.05
2018-08-06T09:52:50.356Z,991
2018-08-06T09:53:50.307Z,991.01
2018-08-06T09:54:50.315Z,990.98
2018-08-06T09:55:50.335Z,991
2018-08-06T09:56:50.331Z,990.98
2018-08-06T09:57:50.340Z,990.92
2018-08-06T09:58:50.349Z,990.94
2018-08-06T09:59:50.359Z,990.95
2018-08-06T10:00:50.356Z,990.93
2018-08-06T10:01:50.364Z,990.91
2018-08-06T10:02:50.394Z,990.91
2018-08-06T10:03:50.377Z,990.91
2018-08-06T10:04:50.380Z,990.86
2018-08-06T10:05:50.506Z,990.83
2018-08-06T10:06:50.404Z,990.79
2018-08-06T10:07:50.407Z,990.8
2018-08-06T10:08:50.410Z,990.77
2018-08-06T10:09:50.414Z,990.76
2018-08-06T10:10:50.417Z,990.75
2018-08-06T10:11:50.459Z,990.75
2018-08-06T10:12:50.433Z,990.74
2018-08-06T10:13:50.438Z,990.73
2018-08-06T10:14:50.449Z,990.71
2018-08-06T10:15:50.451Z,990.67
2018-08-06T10:16:52.061Z,990.65
2018-08-06T10:17:50.463Z,990.67
2018-08-06T10:18:50.521Z,990.63
2018-08-06T10:19:50.477Z,990.64
2018-08-06T10:20:50.485Z,990.54
2018-08-06T10:21:50.497Z,990.54
2018-08-06T10:22:50.498Z,990.55
2018-08-06T10:23:50.501Z,990.54
2018-08-06T10:24:50.508Z,990.52
2018-08-06T10:25:50.513Z,990.54
2018-08-06T10:26:50.522Z,990.49
2018-08-06T10:27:50.530Z,990.52
2018-08-06T10:28:50.532Z,990.53
2018-08-06T10:29:50.541Z,990.5
2018-08-06T10:30:50.547Z,990.48
2018-08-06T10:31:50.555Z,990.51
2018-08-06T10:32:50.559Z,990.49
2018-08-06T10:33:50.584Z,990.48
2018-08-06T10:34:50.581Z,990.45
2018-08-06T10:35:50.583Z,990.45
2018-08-06T10:36:50.594Z,990.45
2018-08-06T10:37:50.590Z,990.42
2018-08-06T10:38:50.604Z,990.4
2018-08-06T10:39:50.606Z,990.37
2018-08-06T10:40:50.621Z,990.36
2018-08-06T10:41:50.620Z,990.33
2018-08-06T10:42:50.623Z,990.33
2018-08-06T10:43:50.625Z,990.33
2018-08-06T10:44:50.638Z,990.25
2018-08-06T10:45:50.645Z,990.27
2018-08-06T10:46:50.650Z,990.25
2018-08-06T10:47:50.654Z,990.26
2018-08-06T10:48:50.660Z,990.23
2018-08-06T10:49:50.668Z,990.21
2018-08-06T10:50:50.673Z,990.26
2018-08-06T10:51:50.684Z,990.22
2018-08-06T10:52:50.690Z,990.23
2018-08-06T10:53:50.743Z,990.18
2018-08-06T10:54:50.738Z,990.17
2018-08-06T10:55:50.709Z,990.19
2018-08-06T10:56:50.717Z,990.2
2018-08-06T10:57:50.720Z,990.17
2018-08-06T10:58:50.728Z,990.19
2018-08-06T10:59:50.742Z,990.13
2018-08-06T11:00:50.743Z,990.22
2018-08-06T11:01:50.744Z,990.18
2018-08-06T11:02:50.860Z,990.17
2018-08-06T11:03:50.765Z,990.13
2018-08-06T11:04:50.799Z,990.12
2018-08-06T11:05:50.779Z,990.11
2018-08-06T11:06:50.789Z,990.1
2018-08-06T11:07:50.794Z,990.14
2018-08-06T11:08:50.819Z,990.09
2018-08-06T11:09:50.799Z,990.07
2018-08-06T11:10:50.807Z,990.08
2018-08-06T11:11:50.851Z,990.08
2018-08-06T11:12:50.836Z,990.08
2018-08-06T11:13:50.841Z,990.07
2018-08-06T11:14:50.849Z,990.06
2018-08-06T11:15:50.850Z,990.04
2018-08-06T11:16:50.855Z,989.99
2018-08-06T11:17:50.856Z,989.97
2018-08-06T11:18:50.860Z,989.97
2018-08-06T11:19:50.868Z,990
2018-08-06T11:20:50.876Z,990
2018-08-06T11:21:50.880Z,989.98
2018-08-06T11:22:51.144Z,990
2018-08-06T11:23:50.894Z,989.99
2018-08-06T11:24:50.902Z,989.96
2018-08-06T11:25:50.910Z,989.99
2018-08-06T11:26:50.923Z,989.93
2018-08-06T11:27:50.930Z,989.99
2018-08-06T11:28:50.934Z,989.94
2018-08-06T11:29:50.939Z,989.93
2018-08-06T11:30:50.945Z,989.95
2018-08-06T11:31:50.952Z,989.93
2018-08-06T11:32:50.958Z,989.91
2018-08-06T11:33:50.966Z,989.88
2018-08-06T11:34:50.987Z,989.9
2018-08-06T11:35:51.012Z,989.9
2018-08-06T11:36:51.020Z,989.91
2018-08-06T11:37:50.993Z,989.86
2018-08-06T11:38:50.997Z,989.87
2018-08-06T11:39:51.006Z,989.85
2018-08-06T11:40:51.015Z,989.84
2018-08-06T11:41:51.020Z,989.8
2018-08-06T11:42:51.024Z,989.82
2018-08-06T11:43:51.037Z,989.8
2018-08-06T11:44:51.039Z,989.79
2018-08-06T11:45:51.072Z,989.77
2018-08-06T11:46:51.055Z,989.72
2018-08-06T11:47:51.062Z,989.75
2018-08-06T11:48:51.112Z,989.78
2018-08-06T11:49:51.075Z,989.71
2018-08-06T11:50:51.083Z,989.7
2018-08-06T11:51:51.090Z,989.67
2018-08-06T11:52:51.098Z,989.73
2018-08-06T11:53:51.102Z,989.71
2018-08-06T11:54:51.112Z,989.64
2018-08-06T11:55:51.114Z,989.65
2018-08-06T11:56:51.307Z,989.68
2018-08-06T11:57:51.131Z,989.65
2018-08-06T11:58:51.143Z,989.6
2018-08-06T11:59:51.143Z,989.59
2018-08-06T12:00:51.149Z,989.58
2018-08-06T12:01:51.184Z,989.62
2018-08-06T12:02:51.162Z,989.58
2018-08-06T12:03:51.170Z,989.62
2018-08-06T12:04:51.177Z,989.55
2018-08-06T12:05:51.186Z,989.58
2018-08-06T12:06:51.192Z,989.58
2018-08-06T12:07:51.207Z,989.53
2018-08-06T12:08:51.210Z,989.58
2018-08-06T12:09:51.213Z,989.56
2018-08-06T12:10:51.219Z,989.56
2018-08-06T12:11:51.221Z,989.54
2018-08-06T12:12:51.229Z,989.5
2018-08-06T12:13:51.236Z,989.5
2018-08-06T12:14:51.243Z,989.49
2018-08-06T12:15:51.255Z,989.46
2018-08-06T12:16:51.258Z,989.42
2018-08-06T12:17:51.265Z,989.41
2018-08-06T12:18:51.270Z,989.41
2018-08-06T12:19:51.277Z,989.39
2018-08-06T12:20:51.296Z,989.36
2018-08-06T12:21:51.293Z,989.36
2018-08-06T12:22:51.297Z,989.38
2018-08-06T12:23:51.304Z,989.35
2018-08-06T12:24:51.316Z,989.38
2018-08-06T12:25:51.375Z,989.33
2018-08-06T12:26:51.328Z,989.34
2018-08-06T12:27:51.345Z,989.33
2018-08-06T12:28:51.342Z,989.33
2018-08-06T12:29:51.344Z,989.35
2018-08-06T12:30:51.355Z,989.25
2018-08-06T12:31:51.359Z,989.2